Airfield :
LOGIN :

Register | Disclaimer

   EN    FR    IT 

 










Legend :    VFR   Marginal VFR   IFR   Intensive IFR   Very Intensive IFR
Visi :
Ceiling :
>= 8 km
>= 3000ft
5 to 8 km
1000 to 3000 ft
1500m to 5 km
500 to 1000 ft
800 to 1500m
200 to 500 ft
< 800m
< 200 ft
Symbols :   Thunderstorms  Fog  Heavy snow  Heavy precipitations  Wind > 20 kt
SIGMETs :     Misc.  Thunderstorms  Icing  Turbulence  Mountain Waves  Volcanic Ashes







- Airport Elevation : -15 ft
- IATA code : RTM


EHRD - Rotterdam Zestienhoven

CURRENT METAR :
  • 201725Z AUTO 08013KT 9999 FEW022 OVC035 04/M00 Q1007 NOSIG

EXPIRED METARs :
  • 201655Z AUTO 08013KT 050V110 9999 BKN021 OVC024 04/M00 Q1008 NOSIG
  • 201625Z AUTO 08012KT 030V110 9999 OVC021 04/M00 Q1008 NOSIG
  • 201555Z AUTO 08012KT 050V110 9999 FEW022 OVC036 04/M01 Q1007 NOSIG
  • 201525Z AUTO 08015KT 050V110 9999 OVC031 04/M01 Q1007 NOSIG
  • 201455Z AUTO 08014KT 9999 OVC036 04/M01 Q1007 NOSIG

TAF COR TAF EHRD
Valid from the 20 at 12:00 until the 21 at 18:00 UTC


201117Z 2012/2118 08017G28KT 9999 SCT022 BKN024
BECMG 2020/2023 09014KT
PROB30
TEMPO 2022/2108 7000 -RADZ BKN018
BECMG 2108/2111 12009KT
No reported NOTAMs for that airfield.



MET'MAP, your aeronautical weather chart ! - Copyright ORBIFLY December 2007 - Disclaimer

ORBIFLY MET'MAP TEAM :

Programming & Development : Alexandra Zaïnal
Concept & Development : Baudouin d'Aumeries
Co-Development & Prog : Marc-Olivier Méhu
Technical & hardware support : Manuel Goepfert

Contact : metmap@orbifly.com




SOURCES & CREDITS :

   NOAA